Angles, Spain
Current Conditions -  °F | °C
As of 10:30 AM on Sunday 23 Nov 2014 (Local Time) from LEGE Reporting Station
Broken Clouds Broken Clouds  
Wind Chill: 63°   Ceiling: 1700
Heat Index: 63°   Visibility: 6mi
Dew Point: 59°   Wind: 3mph
Humidity: 88%   Direction: 10°N
Pressure: 30.12"   Gusts: NA
Location:  41.96°N, 2.64°E
Report Text: LEGE 230930Z 01003KT 340V040 9999 BKN017 17/15 Q1020
Loading
Personal Weather Stations






























Interactive Weather Map New forecast layout! Learn more

10-Day Weather Forecast

Advertisements
Track Severe Weather on mobile